sensor_id;sensor_type;location;lat;lon;timestamp;temperature;humidity
21616;DHT22;10970;48.714;9.584;2023-05-10T00:00:39;14.00;99.90
21616;DHT22;10970;48.714;9.584;2023-05-10T00:03:05;14.00;99.90
21616;DHT22;10970;48.714;9.584;2023-05-10T00:05:31;14.00;99.90
21616;DHT22;10970;48.714;9.584;2023-05-10T00:07:57;14.00;99.90
21616;DHT22;10970;48.714;9.584;2023-05-10T00:10:23;14.00;99.90
21616;DHT22;10970;48.714;9.584;2023-05-10T00:12:48;13.90;99.90
21616;DHT22;10970;48.714;9.584;2023-05-10T00:15:14;13.90;99.90
21616;DHT22;10970;48.714;9.584;2023-05-10T00:17:40;13.90;99.90
21616;DHT22;10970;48.714;9.584;2023-05-10T00:20:06;13.90;99.90
21616;DHT22;10970;48.714;9.584;2023-05-10T00:22:32;13.80;99.90
21616;DHT22;10970;48.714;9.584;2023-05-10T00:24:58;13.80;99.90
21616;DHT22;10970;48.714;9.584;2023-05-10T00:27:24;13.80;99.90
21616;DHT22;10970;48.714;9.584;2023-05-10T00:29:49;13.80;99.90
21616;DHT22;10970;48.714;9.584;2023-05-10T00:32:15;13.80;99.90
21616;DHT22;10970;48.714;9.584;2023-05-10T00:34:41;13.70;99.90
21616;DHT22;10970;48.714;9.584;2023-05-10T00:37:07;13.70;99.90
21616;DHT22;10970;48.714;9.584;2023-05-10T00:39:32;13.70;99.90
21616;DHT22;10970;48.714;9.584;2023-05-10T00:41:58;13.70;99.90
21616;DHT22;10970;48.714;9.584;2023-05-10T00:44:25;13.70;99.90
21616;DHT22;10970;48.714;9.584;2023-05-10T00:46:51;13.70;99.90
21616;DHT22;10970;48.714;9.584;2023-05-10T00:49:16;13.70;99.90
21616;DHT22;10970;48.714;9.584;2023-05-10T00:51:43;13.70;99.90
21616;DHT22;10970;48.714;9.584;2023-05-10T00:54:14;13.70;99.90
21616;DHT22;10970;48.714;9.584;2023-05-10T00:56:41;13.70;99.90
21616;DHT22;10970;48.714;9.584;2023-05-10T00:59:08;13.70;99.90
21616;DHT22;10970;48.714;9.584;2023-05-10T01:01:35;13.70;99.90
21616;DHT22;10970;48.714;9.584;2023-05-10T01:04:01;13.70;99.90
21616;DHT22;10970;48.714;9.584;2023-05-10T01:06:28;13.70;99.90
21616;DHT22;10970;48.714;9.584;2023-05-10T01:08:54;13.60;99.90
21616;DHT22;10970;48.714;9.584;2023-05-10T01:11:21;13.60;99.90
21616;DHT22;10970;48.714;9.584;2023-05-10T01:13:52;13.50;99.90
21616;DHT22;10970;48.714;9.584;2023-05-10T01:16:19;13.40;99.90
21616;DHT22;10970;48.714;9.584;2023-05-10T01:18:45;13.40;99.90
21616;DHT22;10970;48.714;9.584;2023-05-10T01:43:28;13.00;99.90
21616;DHT22;10970;48.714;9.584;2023-05-10T01:46:05;12.90;99.90
21616;DHT22;10970;48.714;9.584;2023-05-10T01:48:48;12.90;99.90
21616;DHT22;10970;48.714;9.584;2023-05-10T01:51:22;12.90;99.90
21616;DHT22;10970;48.714;9.584;2023-05-10T01:53:48;12.80;99.90
21616;DHT22;10970;48.714;9.584;2023-05-10T01:56:16;12.80;99.90
21616;DHT22;10970;48.714;9.584;2023-05-10T01:58:44;12.80;99.90
21616;DHT22;10970;48.714;9.584;2023-05-10T02:01:12;12.70;99.90
21616;DHT22;10970;48.714;9.584;2023-05-10T02:03:40;12.80;99.90
21616;DHT22;10970;48.714;9.584;2023-05-10T02:06:07;12.80;99.90
21616;DHT22;10970;48.714;9.584;2023-05-10T02:08:35;12.80;99.90
21616;DHT22;10970;48.714;9.584;2023-05-10T02:11:03;12.80;99.90
21616;DHT22;10970;48.714;9.584;2023-05-10T02:13:32;12.70;99.90
21616;DHT22;10970;48.714;9.584;2023-05-10T02:16:03;12.70;99.90
21616;DHT22;10970;48.714;9.584;2023-05-10T02:18:31;12.70;99.90
21616;DHT22;10970;48.714;9.584;2023-05-10T02:20:58;12.60;99.90
21616;DHT22;10970;48.714;9.584;2023-05-10T02:23:25;12.60;99.90
21616;DHT22;10970;48.714;9.584;2023-05-10T02:25:51;12.60;99.90
21616;DHT22;10970;48.714;9.584;2023-05-10T02:28:19;12.60;99.90
21616;DHT22;10970;48.714;9.584;2023-05-10T02:30:47;12.60;99.90
21616;DHT22;10970;48.714;9.584;2023-05-10T02:33:13;12.60;99.90
21616;DHT22;10970;48.714;9.584;2023-05-10T02:35:39;12.60;99.90
21616;DHT22;10970;48.714;9.584;2023-05-10T02:38:06;12.70;99.90
21616;DHT22;10970;48.714;9.584;2023-05-10T02:40:33;12.70;99.90
21616;DHT22;10970;48.714;9.584;2023-05-10T02:43:01;12.70;99.90
21616;DHT22;10970;48.714;9.584;2023-05-10T02:45:31;12.70;99.90
21616;DHT22;10970;48.714;9.584;2023-05-10T02:47:57;12.80;99.90
21616;DHT22;10970;48.714;9.584;2023-05-10T02:50:27;12.80;99.90
21616;DHT22;10970;48.714;9.584;2023-05-10T02:52:56;12.70;99.90
21616;DHT22;10970;48.714;9.584;2023-05-10T02:55:26;12.70;99.90
21616;DHT22;10970;48.714;9.584;2023-05-10T02:58:00;12.70;99.90
21616;DHT22;10970;48.714;9.584;2023-05-10T03:00:26;12.60;99.90
21616;DHT22;10970;48.714;9.584;2023-05-10T03:02:52;12.60;99.90
21616;DHT22;10970;48.714;9.584;2023-05-10T03:05:18;12.60;99.90
21616;DHT22;10970;48.714;9.584;2023-05-10T03:07:45;12.60;99.90
21616;DHT22;10970;48.714;9.584;2023-05-10T03:10:11;12.50;99.90
21616;DHT22;10970;48.714;9.584;2023-05-10T03:15:56;12.50;99.90
21616;DHT22;10970;48.714;9.584;2023-05-10T03:21:04;12.50;99.90
21616;DHT22;10970;48.714;9.584;2023-05-10T03:23:47;12.40;99.90
21616;DHT22;10970;48.714;9.584;2023-05-10T03:26:24;12.40;99.90
21616;DHT22;10970;48.714;9.584;2023-05-10T03:28:52;12.50;99.90
21616;DHT22;10970;48.714;9.584;2023-05-10T03:31:18;12.50;99.90
21616;DHT22;10970;48.714;9.584;2023-05-10T03:33:48;12.60;99.90
21616;DHT22;10970;48.714;9.584;2023-05-10T03:36:14;12.60;99.90
21616;DHT22;10970;48.714;9.584;2023-05-10T03:38:39;12.60;99.90
21616;DHT22;10970;48.714;9.584;2023-05-10T03:41:05;12.60;99.90
21616;DHT22;10970;48.714;9.584;2023-05-10T03:43:30;12.60;99.90
21616;DHT22;10970;48.714;9.584;2023-05-10T03:45:56;12.60;99.90
21616;DHT22;10970;48.714;9.584;2023-05-10T03:48:22;12.50;99.90
21616;DHT22;10970;48.714;9.584;2023-05-10T03:50:47;12.50;99.90
21616;DHT22;10970;48.714;9.584;2023-05-10T03:53:15;12.50;99.90
21616;DHT22;10970;48.714;9.584;2023-05-10T03:55:41;12.40;99.90
21616;DHT22;10970;48.714;9.584;2023-05-10T03:58:06;12.40;99.90
21616;DHT22;10970;48.714;9.584;2023-05-10T04:00:32;12.40;99.90
21616;DHT22;10970;48.714;9.584;2023-05-10T04:02:58;12.50;99.90
21616;DHT22;10970;48.714;9.584;2023-05-10T04:05:23;12.50;99.90
21616;DHT22;10970;48.714;9.584;2023-05-10T04:07:49;12.50;99.90
21616;DHT22;10970;48.714;9.584;2023-05-10T04:10:15;12.50;99.90
21616;DHT22;10970;48.714;9.584;2023-05-10T04:12:42;12.50;99.90
21616;DHT22;10970;48.714;9.584;2023-05-10T04:15:08;12.60;99.90
21616;DHT22;10970;48.714;9.584;2023-05-10T04:17:33;12.60;99.90
21616;DHT22;10970;48.714;9.584;2023-05-10T04:19:59;12.60;99.90
21616;DHT22;10970;48.714;9.584;2023-05-10T04:22:25;12.70;99.90
21616;DHT22;10970;48.714;9.584;2023-05-10T04:24:50;12.70;99.90
21616;DHT22;10970;48.714;9.584;2023-05-10T04:27:16;12.70;99.90
21616;DHT22;10970;48.714;9.584;2023-05-10T04:29:42;12.80;99.90
21616;DHT22;10970;48.714;9.584;2023-05-10T04:32:08;12.80;99.90
21616;DHT22;10970;48.714;9.584;2023-05-10T04:34:36;12.80;99.90
21616;DHT22;10970;48.714;9.584;2023-05-10T04:37:02;12.90;99.90
21616;DHT22;10970;48.714;9.584;2023-05-10T04:39:27;12.90;99.90
21616;DHT22;10970;48.714;9.584;2023-05-10T04:41:53;13.00;99.90
21616;DHT22;10970;48.714;9.584;2023-05-10T04:44:18;13.10;99.90
21616;DHT22;10970;48.714;9.584;2023-05-10T04:46:44;13.20;99.90
21616;DHT22;10970;48.714;9.584;2023-05-10T04:49:10;13.20;99.90
21616;DHT22;10970;48.714;9.584;2023-05-10T04:51:35;13.30;99.90
21616;DHT22;10970;48.714;9.584;2023-05-10T04:54:01;13.40;99.90
21616;DHT22;10970;48.714;9.584;2023-05-10T04:56:27;13.50;99.90
21616;DHT22;10970;48.714;9.584;2023-05-10T04:58:52;13.60;99.90
21616;DHT22;10970;48.714;9.584;2023-05-10T05:01:18;13.60;99.90
21616;DHT22;10970;48.714;9.584;2023-05-10T05:03:44;13.70;99.90
21616;DHT22;10970;48.714;9.584;2023-05-10T05:06:09;13.70;99.90
21616;DHT22;10970;48.714;9.584;2023-05-10T05:08:35;13.60;99.90
21616;DHT22;10970;48.714;9.584;2023-05-10T05:11:01;13.60;99.90
21616;DHT22;10970;48.714;9.584;2023-05-10T05:13:26;13.60;99.90
21616;DHT22;10970;48.714;9.584;2023-05-10T05:15:52;13.70;99.90
21616;DHT22;10970;48.714;9.584;2023-05-10T05:18:18;13.80;99.90
21616;DHT22;10970;48.714;9.584;2023-05-10T05:20:44;13.70;99.90
21616;DHT22;10970;48.714;9.584;2023-05-10T05:23:09;13.80;99.90
21616;DHT22;10970;48.714;9.584;2023-05-10T05:25:35;13.80;99.90
21616;DHT22;10970;48.714;9.584;2023-05-10T05:28:01;13.80;99.90
21616;DHT22;10970;48.714;9.584;2023-05-10T05:30:27;13.80;99.90
21616;DHT22;10970;48.714;9.584;2023-05-10T05:32:52;13.80;99.90
21616;DHT22;10970;48.714;9.584;2023-05-10T05:35:18;13.80;99.90
21616;DHT22;10970;48.714;9.584;2023-05-10T05:37:44;13.80;99.90
21616;DHT22;10970;48.714;9.584;2023-05-10T05:40:12;13.80;99.90
21616;DHT22;10970;48.714;9.584;2023-05-10T05:42:39;13.70;99.90
21616;DHT22;10970;48.714;9.584;2023-05-10T05:45:05;13.80;99.90
21616;DHT22;10970;48.714;9.584;2023-05-10T05:47:31;13.80;99.90
21616;DHT22;10970;48.714;9.584;2023-05-10T05:49:56;13.90;99.90
21616;DHT22;10970;48.714;9.584;2023-05-10T05:52:22;14.00;99.90
21616;DHT22;10970;48.714;9.584;2023-05-10T05:54:48;14.00;99.90
21616;DHT22;10970;48.714;9.584;2023-05-10T05:57:13;14.00;99.90
21616;DHT22;10970;48.714;9.584;2023-05-10T05:59:39;13.90;99.90
21616;DHT22;10970;48.714;9.584;2023-05-10T06:02:09;13.90;99.90
21616;DHT22;10970;48.714;9.584;2023-05-10T06:04:35;13.90;99.90
21616;DHT22;10970;48.714;9.584;2023-05-10T06:07:01;13.90;99.90
21616;DHT22;10970;48.714;9.584;2023-05-10T06:09:26;13.80;99.90
21616;DHT22;10970;48.714;9.584;2023-05-10T06:11:52;13.80;99.90
21616;DHT22;10970;48.714;9.584;2023-05-10T06:14:20;13.80;99.90
21616;DHT22;10970;48.714;9.584;2023-05-10T06:16:46;13.70;99.90
21616;DHT22;10970;48.714;9.584;2023-05-10T06:19:11;13.80;99.90
21616;DHT22;10970;48.714;9.584;2023-05-10T06:21:37;13.90;99.90
21616;DHT22;10970;48.714;9.584;2023-05-10T06:24:03;13.90;99.90
21616;DHT22;10970;48.714;9.584;2023-05-10T06:26:29;14.10;99.90
21616;DHT22;10970;48.714;9.584;2023-05-10T06:28:54;14.10;99.90
21616;DHT22;10970;48.714;9.584;2023-05-10T06:31:20;14.20;99.90
21616;DHT22;10970;48.714;9.584;2023-05-10T06:33:46;14.10;99.90
21616;DHT22;10970;48.714;9.584;2023-05-10T06:36:11;14.20;99.90
21616;DHT22;10970;48.714;9.584;2023-05-10T06:38:38;14.20;99.90
21616;DHT22;10970;48.714;9.584;2023-05-10T06:41:04;14.20;99.90
21616;DHT22;10970;48.714;9.584;2023-05-10T06:43:30;14.20;99.90
21616;DHT22;10970;48.714;9.584;2023-05-10T06:45:55;14.20;99.90
21616;DHT22;10970;48.714;9.584;2023-05-10T06:48:21;14.10;99.90
21616;DHT22;10970;48.714;9.584;2023-05-10T06:50:47;14.10;99.90
21616;DHT22;10970;48.714;9.584;2023-05-10T06:53:12;14.10;99.90
21616;DHT22;10970;48.714;9.584;2023-05-10T06:55:39;14.30;99.90
21616;DHT22;10970;48.714;9.584;2023-05-10T06:58:04;14.40;99.90
21616;DHT22;10970;48.714;9.584;2023-05-10T07:00:30;14.50;99.90
21616;DHT22;10970;48.714;9.584;2023-05-10T07:02:56;14.60;99.90
21616;DHT22;10970;48.714;9.584;2023-05-10T07:05:21;14.70;99.90
21616;DHT22;10970;48.714;9.584;2023-05-10T07:07:47;14.60;99.90
21616;DHT22;10970;48.714;9.584;2023-05-10T07:10:13;14.80;99.90
21616;DHT22;10970;48.714;9.584;2023-05-10T07:12:38;14.80;99.90
21616;DHT22;10970;48.714;9.584;2023-05-10T07:15:05;14.90;99.90
21616;DHT22;10970;48.714;9.584;2023-05-10T07:17:30;14.90;99.90
21616;DHT22;10970;48.714;9.584;2023-05-10T07:19:56;14.80;99.90
21616;DHT22;10970;48.714;9.584;2023-05-10T07:22:22;14.80;99.90
21616;DHT22;10970;48.714;9.584;2023-05-10T07:24:47;14.70;99.90
21616;DHT22;10970;48.714;9.584;2023-05-10T07:27:13;14.70;99.90
21616;DHT22;10970;48.714;9.584;2023-05-10T07:29:39;14.70;99.90
21616;DHT22;10970;48.714;9.584;2023-05-10T07:32:05;14.80;99.90
21616;DHT22;10970;48.714;9.584;2023-05-10T07:34:31;14.80;99.90
21616;DHT22;10970;48.714;9.584;2023-05-10T07:37:00;14.80;99.90
21616;DHT22;10970;48.714;9.584;2023-05-10T07:39:27;14.70;99.90
21616;DHT22;10970;48.714;9.584;2023-05-10T07:41:52;14.80;99.90
21616;DHT22;10970;48.714;9.584;2023-05-10T07:44:18;14.80;99.90
21616;DHT22;10970;48.714;9.584;2023-05-10T07:46:46;14.90;99.90
21616;DHT22;10970;48.714;9.584;2023-05-10T07:49:11;14.90;99.90
21616;DHT22;10970;48.714;9.584;2023-05-10T07:51:37;14.90;99.90
21616;DHT22;10970;48.714;9.584;2023-05-10T07:54:03;14.90;99.90
21616;DHT22;10970;48.714;9.584;2023-05-10T07:56:32;14.80;99.90
21616;DHT22;10970;48.714;9.584;2023-05-10T07:59:02;14.80;99.90
21616;DHT22;10970;48.714;9.584;2023-05-10T08:01:33;14.90;99.90
21616;DHT22;10970;48.714;9.584;2023-05-10T08:03:59;15.00;99.90
21616;DHT22;10970;48.714;9.584;2023-05-10T08:06:25;15.10;99.90
21616;DHT22;10970;48.714;9.584;2023-05-10T08:08:55;15.40;99.90
21616;DHT22;10970;48.714;9.584;2023-05-10T08:11:21;15.70;99.90
21616;DHT22;10970;48.714;9.584;2023-05-10T08:13:49;16.00;99.90
21616;DHT22;10970;48.714;9.584;2023-05-10T08:16:15;16.20;99.90
21616;DHT22;10970;48.714;9.584;2023-05-10T08:18:41;16.50;99.90
21616;DHT22;10970;48.714;9.584;2023-05-10T08:21:07;16.50;99.90
21616;DHT22;10970;48.714;9.584;2023-05-10T08:23:33;16.70;99.90
21616;DHT22;10970;48.714;9.584;2023-05-10T08:25:59;17.00;99.90
21616;DHT22;10970;48.714;9.584;2023-05-10T08:28:25;17.10;99.90
21616;DHT22;10970;48.714;9.584;2023-05-10T08:30:51;17.10;99.90
21616;DHT22;10970;48.714;9.584;2023-05-10T08:33:19;17.00;99.90
21616;DHT22;10970;48.714;9.584;2023-05-10T08:35:45;17.00;99.90
21616;DHT22;10970;48.714;9.584;2023-05-10T08:38:11;16.90;99.90
21616;DHT22;10970;48.714;9.584;2023-05-10T08:40:38;16.60;99.90
21616;DHT22;10970;48.714;9.584;2023-05-10T08:43:08;16.70;99.90
21616;DHT22;10970;48.714;9.584;2023-05-10T08:45:42;16.90;99.90
21616;DHT22;10970;48.714;9.584;2023-05-10T08:48:11;17.00;99.90
21616;DHT22;10970;48.714;9.584;2023-05-10T08:50:38;16.90;99.90
21616;DHT22;10970;48.714;9.584;2023-05-10T08:53:06;16.80;99.90
21616;DHT22;10970;48.714;9.584;2023-05-10T08:55:33;16.70;99.90
21616;DHT22;10970;48.714;9.584;2023-05-10T08:57:59;16.40;99.90
21616;DHT22;10970;48.714;9.584;2023-05-10T09:00:26;16.00;99.90
21616;DHT22;10970;48.714;9.584;2023-05-10T09:02:52;16.20;99.90
21616;DHT22;10970;48.714;9.584;2023-05-10T09:05:18;16.20;99.90
21616;DHT22;10970;48.714;9.584;2023-05-10T09:07:44;16.20;99.90
21616;DHT22;10970;48.714;9.584;2023-05-10T09:10:11;16.20;99.90
21616;DHT22;10970;48.714;9.584;2023-05-10T09:12:38;16.40;99.90
21616;DHT22;10970;48.714;9.584;2023-05-10T09:15:05;16.60;99.90
21616;DHT22;10970;48.714;9.584;2023-05-10T09:17:32;16.70;99.90
21616;DHT22;10970;48.714;9.584;2023-05-10T09:20:03;16.70;99.90
21616;DHT22;10970;48.714;9.584;2023-05-10T09:22:30;16.90;99.90
21616;DHT22;10970;48.714;9.584;2023-05-10T09:25:07;17.10;99.90
21616;DHT22;10970;48.714;9.584;2023-05-10T09:27:34;17.20;99.90
21616;DHT22;10970;48.714;9.584;2023-05-10T09:29:59;17.20;99.90
21616;DHT22;10970;48.714;9.584;2023-05-10T09:32:47;17.10;99.90
21616;DHT22;10970;48.714;9.584;2023-05-10T09:35:14;16.80;99.90
21616;DHT22;10970;48.714;9.584;2023-05-10T09:37:41;16.70;99.90
21616;DHT22;10970;48.714;9.584;2023-05-10T09:40:08;16.40;99.90
21616;DHT22;10970;48.714;9.584;2023-05-10T09:42:36;16.20;99.90
21616;DHT22;10970;48.714;9.584;2023-05-10T09:45:05;15.90;99.90
21616;DHT22;10970;48.714;9.584;2023-05-10T09:47:34;15.80;99.90
21616;DHT22;10970;48.714;9.584;2023-05-10T09:50:02;15.70;99.90
21616;DHT22;10970;48.714;9.584;2023-05-10T09:52:48;15.60;99.90
21616;DHT22;10970;48.714;9.584;2023-05-10T09:55:16;15.30;99.90
21616;DHT22;10970;48.714;9.584;2023-05-10T09:57:42;15.20;99.90
21616;DHT22;10970;48.714;9.584;2023-05-10T10:00:08;15.00;99.90
21616;DHT22;10970;48.714;9.584;2023-05-10T10:02:35;15.00;99.90
21616;DHT22;10970;48.714;9.584;2023-05-10T10:05:02;15.00;99.90
21616;DHT22;10970;48.714;9.584;2023-05-10T10:07:28;15.10;99.90
21616;DHT22;10970;48.714;9.584;2023-05-10T10:09:55;15.30;99.90
21616;DHT22;10970;48.714;9.584;2023-05-10T10:12:20;15.50;99.90
21616;DHT22;10970;48.714;9.584;2023-05-10T10:14:47;15.60;99.90
21616;DHT22;10970;48.714;9.584;2023-05-10T10:17:16;15.70;99.90
21616;DHT22;10970;48.714;9.584;2023-05-10T10:19:45;15.70;99.90
21616;DHT22;10970;48.714;9.584;2023-05-10T10:22:11;15.60;99.90
21616;DHT22;10970;48.714;9.584;2023-05-10T10:24:38;15.60;99.90
21616;DHT22;10970;48.714;9.584;2023-05-10T10:27:24;15.60;99.90
21616;DHT22;10970;48.714;9.584;2023-05-10T10:29:59;15.40;99.90
21616;DHT22;10970;48.714;9.584;2023-05-10T10:35:01;15.00;99.90
21616;DHT22;10970;48.714;9.584;2023-05-10T10:37:47;14.80;99.90
21616;DHT22;10970;48.714;9.584;2023-05-10T10:40:33;14.50;99.90
21616;DHT22;10970;48.714;9.584;2023-05-10T10:43:28;14.40;99.90
21616;DHT22;10970;48.714;9.584;2023-05-10T10:46:18;14.60;99.90
21616;DHT22;10970;48.714;9.584;2023-05-10T10:49:08;14.70;99.90
21616;DHT22;10970;48.714;9.584;2023-05-10T10:51:37;14.90;99.90
21616;DHT22;10970;48.714;9.584;2023-05-10T10:54:12;15.10;99.90
21616;DHT22;10970;48.714;9.584;2023-05-10T10:56:38;15.30;99.90
21616;DHT22;10970;48.714;9.584;2023-05-10T10:59:04;15.60;99.90
21616;DHT22;10970;48.714;9.584;2023-05-10T11:01:33;15.70;99.90
21616;DHT22;10970;48.714;9.584;2023-05-10T11:06:34;16.10;99.90
21616;DHT22;10970;48.714;9.584;2023-05-10T11:09:08;16.30;99.90
21616;DHT22;10970;48.714;9.584;2023-05-10T11:11:36;16.30;99.90
21616;DHT22;10970;48.714;9.584;2023-05-10T11:14:06;16.50;99.90
21616;DHT22;10970;48.714;9.584;2023-05-10T11:16:43;16.60;99.90
21616;DHT22;10970;48.714;9.584;2023-05-10T11:19:13;16.80;99.90
21616;DHT22;10970;48.714;9.584;2023-05-10T11:21:49;17.00;99.90
21616;DHT22;10970;48.714;9.584;2023-05-10T11:24:20;17.30;99.90
21616;DHT22;10970;48.714;9.584;2023-05-10T11:26:46;17.50;99.90
21616;DHT22;10970;48.714;9.584;2023-05-10T11:29:15;17.70;99.90
21616;DHT22;10970;48.714;9.584;2023-05-10T11:31:45;17.90;99.90
21616;DHT22;10970;48.714;9.584;2023-05-10T11:34:13;17.80;99.90
21616;DHT22;10970;48.714;9.584;2023-05-10T11:36:51;17.50;99.90
21616;DHT22;10970;48.714;9.584;2023-05-10T11:39:19;17.10;99.90
21616;DHT22;10970;48.714;9.584;2023-05-10T11:41:48;17.00;99.90
21616;DHT22;10970;48.714;9.584;2023-05-10T11:44:14;16.90;99.90
21616;DHT22;10970;48.714;9.584;2023-05-10T11:46:40;16.50;99.90
21616;DHT22;10970;48.714;9.584;2023-05-10T11:49:07;16.30;99.90
21616;DHT22;10970;48.714;9.584;2023-05-10T11:51:34;16.10;99.90
21616;DHT22;10970;48.714;9.584;2023-05-10T11:54:05;16.00;99.90
21616;DHT22;10970;48.714;9.584;2023-05-10T11:56:32;15.80;99.90
21616;DHT22;10970;48.714;9.584;2023-05-10T11:58:59;15.80;99.90
21616;DHT22;10970;48.714;9.584;2023-05-10T12:01:27;15.50;99.90
21616;DHT22;10970;48.714;9.584;2023-05-10T12:03:56;14.90;99.90
21616;DHT22;10970;48.714;9.584;2023-05-10T12:06:27;14.40;99.90
21616;DHT22;10970;48.714;9.584;2023-05-10T12:08:54;14.00;99.90
21616;DHT22;10970;48.714;9.584;2023-05-10T12:11:20;13.80;99.90
21616;DHT22;10970;48.714;9.584;2023-05-10T12:13:50;13.60;99.90
21616;DHT22;10970;48.714;9.584;2023-05-10T12:18:44;13.30;99.90
21616;DHT22;10970;48.714;9.584;2023-05-10T12:21:10;13.20;99.90
21616;DHT22;10970;48.714;9.584;2023-05-10T12:23:37;13.00;99.90
21616;DHT22;10970;48.714;9.584;2023-05-10T12:26:04;12.80;99.90
21616;DHT22;10970;48.714;9.584;2023-05-10T12:28:30;12.60;99.90
21616;DHT22;10970;48.714;9.584;2023-05-10T12:30:59;12.60;99.90
21616;DHT22;10970;48.714;9.584;2023-05-10T12:33:25;12.50;99.90
21616;DHT22;10970;48.714;9.584;2023-05-10T12:35:54;12.50;99.90
21616;DHT22;10970;48.714;9.584;2023-05-10T12:38:25;12.50;99.90
21616;DHT22;10970;48.714;9.584;2023-05-10T12:40:51;12.50;99.90
21616;DHT22;10970;48.714;9.584;2023-05-10T12:43:16;12.60;99.90
21616;DHT22;10970;48.714;9.584;2023-05-10T12:45:42;12.60;99.90
21616;DHT22;10970;48.714;9.584;2023-05-10T12:48:08;12.70;99.90
21616;DHT22;10970;48.714;9.584;2023-05-10T12:50:33;12.80;99.90
21616;DHT22;10970;48.714;9.584;2023-05-10T12:52:59;12.80;99.90
21616;DHT22;10970;48.714;9.584;2023-05-10T12:55:24;12.80;99.90
21616;DHT22;10970;48.714;9.584;2023-05-10T12:57:50;12.80;99.90
21616;DHT22;10970;48.714;9.584;2023-05-10T13:00:16;12.80;99.90
21616;DHT22;10970;48.714;9.584;2023-05-10T13:02:42;13.00;99.90
21616;DHT22;10970;48.714;9.584;2023-05-10T13:05:07;13.00;99.90
21616;DHT22;10970;48.714;9.584;2023-05-10T13:07:33;13.20;99.90
21616;DHT22;10970;48.714;9.584;2023-05-10T13:09:59;13.30;99.90
21616;DHT22;10970;48.714;9.584;2023-05-10T13:12:24;13.50;99.90
21616;DHT22;10970;48.714;9.584;2023-05-10T13:14:50;13.70;99.90
21616;DHT22;10970;48.714;9.584;2023-05-10T13:17:16;13.90;99.90
21616;DHT22;10970;48.714;9.584;2023-05-10T13:19:41;14.10;99.90
21616;DHT22;10970;48.714;9.584;2023-05-10T13:22:07;14.30;99.90
21616;DHT22;10970;48.714;9.584;2023-05-10T13:24:33;14.40;99.90
21616;DHT22;10970;48.714;9.584;2023-05-10T13:26:58;14.50;99.90
21616;DHT22;10970;48.714;9.584;2023-05-10T13:29:24;14.70;99.90
21616;DHT22;10970;48.714;9.584;2023-05-10T13:31:50;14.70;99.90
21616;DHT22;10970;48.714;9.584;2023-05-10T13:34:16;14.90;99.90
21616;DHT22;10970;48.714;9.584;2023-05-10T13:36:41;15.10;99.90
21616;DHT22;10970;48.714;9.584;2023-05-10T13:39:07;15.10;99.90
21616;DHT22;10970;48.714;9.584;2023-05-10T13:41:33;15.20;99.90
21616;DHT22;10970;48.714;9.584;2023-05-10T13:43:59;15.20;99.90
21616;DHT22;10970;48.714;9.584;2023-05-10T13:46:25;15.10;99.90
21616;DHT22;10970;48.714;9.584;2023-05-10T13:48:50;15.00;99.90
21616;DHT22;10970;48.714;9.584;2023-05-10T13:51:16;15.20;99.90
21616;DHT22;10970;48.714;9.584;2023-05-10T13:53:42;15.30;99.90
21616;DHT22;10970;48.714;9.584;2023-05-10T13:56:07;15.50;99.90
21616;DHT22;10970;48.714;9.584;2023-05-10T13:58:33;15.50;99.90
21616;DHT22;10970;48.714;9.584;2023-05-10T14:01:00;15.60;99.90
21616;DHT22;10970;48.714;9.584;2023-05-10T14:03:25;15.60;99.90
21616;DHT22;10970;48.714;9.584;2023-05-10T14:05:51;15.80;99.90
21616;DHT22;10970;48.714;9.584;2023-05-10T14:08:17;16.00;99.90
21616;DHT22;10970;48.714;9.584;2023-05-10T14:10:43;16.00;99.90
21616;DHT22;10970;48.714;9.584;2023-05-10T14:13:08;16.30;99.90
21616;DHT22;10970;48.714;9.584;2023-05-10T14:15:34;16.30;99.90
21616;DHT22;10970;48.714;9.584;2023-05-10T14:17:59;16.50;99.90
21616;DHT22;10970;48.714;9.584;2023-05-10T14:20:25;16.50;99.90
21616;DHT22;10970;48.714;9.584;2023-05-10T14:22:51;16.50;99.90
21616;DHT22;10970;48.714;9.584;2023-05-10T14:25:17;16.40;99.90
21616;DHT22;10970;48.714;9.584;2023-05-10T14:27:43;16.60;99.90
21616;DHT22;10970;48.714;9.584;2023-05-10T14:30:09;16.70;99.90
21616;DHT22;10970;48.714;9.584;2023-05-10T14:32:35;16.80;99.90
21616;DHT22;10970;48.714;9.584;2023-05-10T14:35:02;16.80;99.90
21616;DHT22;10970;48.714;9.584;2023-05-10T14:37:28;16.70;99.90
21616;DHT22;10970;48.714;9.584;2023-05-10T14:39:54;16.70;99.90
21616;DHT22;10970;48.714;9.584;2023-05-10T14:42:19;16.80;99.90
21616;DHT22;10970;48.714;9.584;2023-05-10T14:44:45;16.70;99.90
21616;DHT22;10970;48.714;9.584;2023-05-10T14:47:11;16.70;99.90
21616;DHT22;10970;48.714;9.584;2023-05-10T14:49:37;16.70;99.90
21616;DHT22;10970;48.714;9.584;2023-05-10T14:52:02;16.70;99.90
21616;DHT22;10970;48.714;9.584;2023-05-10T14:54:28;16.60;99.90
21616;DHT22;10970;48.714;9.584;2023-05-10T14:56:54;16.60;99.90
21616;DHT22;10970;48.714;9.584;2023-05-10T14:59:20;16.80;99.90
21616;DHT22;10970;48.714;9.584;2023-05-10T15:01:46;16.70;99.90
21616;DHT22;10970;48.714;9.584;2023-05-10T15:04:11;16.70;99.90
21616;DHT22;10970;48.714;9.584;2023-05-10T15:06:38;16.60;99.90
21616;DHT22;10970;48.714;9.584;2023-05-10T15:09:04;16.60;99.90
21616;DHT22;10970;48.714;9.584;2023-05-10T15:11:30;16.60;99.90
21616;DHT22;10970;48.714;9.584;2023-05-10T15:13:55;16.60;99.90
21616;DHT22;10970;48.714;9.584;2023-05-10T15:16:21;16.50;99.90
21616;DHT22;10970;48.714;9.584;2023-05-10T15:18:47;16.50;99.90
21616;DHT22;10970;48.714;9.584;2023-05-10T15:21:13;16.50;99.90
21616;DHT22;10970;48.714;9.584;2023-05-10T15:23:39;16.30;99.90
21616;DHT22;10970;48.714;9.584;2023-05-10T15:26:04;16.40;99.90
21616;DHT22;10970;48.714;9.584;2023-05-10T15:28:30;16.40;99.90
21616;DHT22;10970;48.714;9.584;2023-05-10T15:30:56;16.50;99.90
21616;DHT22;10970;48.714;9.584;2023-05-10T15:33:22;16.50;99.90
21616;DHT22;10970;48.714;9.584;2023-05-10T15:35:48;16.40;99.90
21616;DHT22;10970;48.714;9.584;2023-05-10T15:38:13;16.40;99.90
21616;DHT22;10970;48.714;9.584;2023-05-10T15:40:40;16.50;99.90
21616;DHT22;10970;48.714;9.584;2023-05-10T15:43:05;16.10;99.90
21616;DHT22;10970;48.714;9.584;2023-05-10T15:45:31;16.30;99.90
21616;DHT22;10970;48.714;9.584;2023-05-10T15:47:58;16.30;99.90
21616;DHT22;10970;48.714;9.584;2023-05-10T15:50:24;16.20;99.90
21616;DHT22;10970;48.714;9.584;2023-05-10T15:52:50;16.10;99.90
21616;DHT22;10970;48.714;9.584;2023-05-10T15:55:16;16.20;99.90
21616;DHT22;10970;48.714;9.584;2023-05-10T15:57:43;16.20;99.90
21616;DHT22;10970;48.714;9.584;2023-05-10T16:00:09;16.10;99.90
21616;DHT22;10970;48.714;9.584;2023-05-10T16:02:36;16.30;99.90
21616;DHT22;10970;48.714;9.584;2023-05-10T16:05:02;16.30;99.90